Terminal Aerodrome Forecast
Issued by NWS

Home | Current Version | Previous Version | Text Only | Print | Product List | Glossary On
Versions: 1 2 3 4 5 6 7 8 9 10 11 12
000
FTAK31 PAFA 011134
TAFAOM
TAF
PAOM 011134Z 0112/0212 33012KT P6SM VCSH BKN070 OVC090
     FM012100 35008KT P6SM SCT070 BKN100
     FM020300 32009KT P6SM SCT100 SCT250=

USA.gov is the U.S. government's official web portal to all federal, state and local government web resources and services.